createdAt,value
2018-07-14T00:01:04.208Z,101423.52
2018-07-14T00:03:32.685Z,101423.21
2018-07-14T00:06:01.042Z,101427.95
2018-07-14T00:08:29.368Z,101422.27
2018-07-14T00:10:57.700Z,101425.14
2018-07-14T00:13:26.035Z,101425.34
2018-07-14T00:15:54.546Z,101422.16
2018-07-14T00:18:22.950Z,101423.02
2018-07-14T00:20:51.545Z,101422.67
2018-07-14T00:23:19.864Z,101420.77
2018-07-14T00:25:53.391Z,101425.45
2018-07-14T00:28:21.717Z,101422.84
2018-07-14T00:30:50.037Z,101415.38
2018-07-14T00:33:18.435Z,101413.73
2018-07-14T00:35:46.753Z,101409.33
2018-07-14T00:38:15.132Z,101404.36
2018-07-14T00:40:43.450Z,101417.86
2018-07-14T00:43:12.148Z,101414.42
2018-07-14T00:45:40.621Z,101414.16
2018-07-14T00:48:08.957Z,101415.57
2018-07-14T00:50:37.301Z,101413.97
2018-07-14T00:53:05.905Z,101415.52
2018-07-14T00:55:34.280Z,101413.53
2018-07-14T00:58:02.648Z,101415.22
2018-07-14T01:00:31.027Z,101414.75
2018-07-14T01:02:59.399Z,101422.40
2018-07-14T01:05:27.772Z,101419.22
2018-07-14T01:07:56.199Z,101414.09
2018-07-14T01:10:24.562Z,101416.45
2018-07-14T01:12:52.892Z,101417.79
2018-07-14T01:15:21.226Z,101418.81
2018-07-14T01:17:49.615Z,101415.88
2018-07-14T01:20:17.912Z,101421.56
2018-07-14T01:22:46.261Z,101427.25
2018-07-14T01:25:14.570Z,101427.25
2018-07-14T01:27:42.901Z,101424.91
2018-07-14T01:30:11.446Z,101430.63
2018-07-14T01:32:39.757Z,101432.84
2018-07-14T01:35:08.573Z,101424.89
2018-07-14T01:37:37.056Z,101421.72
2018-07-14T01:40:05.417Z,101423.61
2018-07-14T01:42:33.829Z,101424.31
2018-07-14T01:45:02.182Z,101425.88
2018-07-14T01:47:30.535Z,101421.41
2018-07-14T01:49:58.869Z,101419.42
2018-07-14T01:52:27.295Z,101419.09
2018-07-14T01:54:55.882Z,101419.77
2018-07-14T01:57:24.197Z,101421.13
2018-07-14T01:59:52.514Z,101425.33
2018-07-14T02:02:20.829Z,101430.69
2018-07-14T02:04:49.180Z,101427.04
2018-07-14T02:07:17.499Z,101433.41
2018-07-14T02:09:45.895Z,101433.41
2018-07-14T02:12:14.205Z,101426.13
2018-07-14T02:14:42.572Z,101423.97
2018-07-14T02:17:11.080Z,101423.62
2018-07-14T02:19:39.524Z,101425.80
2018-07-14T02:22:07.895Z,101432.80
2018-07-14T02:24:36.243Z,101431.34
2018-07-14T02:27:04.591Z,101435.15
2018-07-14T02:29:32.942Z,101437.33
2018-07-14T02:32:01.272Z,101436.67
2018-07-14T02:34:29.633Z,101438.00
2018-07-14T02:36:57.952Z,101443.34
2018-07-14T02:39:26.376Z,101450.34
2018-07-14T02:41:54.724Z,101449.02
2018-07-14T02:44:23.108Z,101451.17
2018-07-14T02:46:51.537Z,101448.19
2018-07-14T02:49:19.879Z,101446.72
2018-07-14T02:51:48.227Z,101449.91
2018-07-14T02:54:16.549Z,101443.11
2018-07-14T02:56:44.906Z,101447.45
2018-07-14T02:59:13.444Z,101446.14
2018-07-14T03:01:41.797Z,101450.13
2018-07-14T03:04:10.323Z,101443.67
2018-07-14T03:06:38.741Z,101445.47
2018-07-14T03:09:07.803Z,101444.16
2018-07-14T03:11:36.120Z,101440.17
2018-07-14T03:14:04.518Z,101439.20
2018-07-14T03:16:32.879Z,101437.36
2018-07-14T03:19:01.233Z,101446.16
2018-07-14T03:21:29.567Z,101439.67
2018-07-14T03:23:57.905Z,101436.02
2018-07-14T03:26:26.443Z,101435.20
2018-07-14T03:28:54.830Z,101434.69
2018-07-14T03:31:23.301Z,101435.38
2018-07-14T03:33:51.631Z,101438.86
2018-07-14T03:36:19.983Z,101432.22
2018-07-14T03:38:48.334Z,101433.23
2018-07-14T03:41:16.942Z,101421.08
2018-07-14T03:43:45.284Z,101424.05
2018-07-14T03:46:13.633Z,101425.89
2018-07-14T03:48:42.038Z,101424.22
2018-07-14T03:51:10.524Z,101427.70
2018-07-14T03:53:38.914Z,101423.56
2018-07-14T03:56:07.258Z,101428.88
2018-07-14T03:58:35.639Z,101426.03
2018-07-14T04:01:04.002Z,101425.88
2018-07-14T04:03:32.334Z,101427.69
2018-07-14T04:06:00.754Z,101425.02
2018-07-14T04:08:29.228Z,101426.98
2018-07-14T04:10:57.556Z,101429.27
2018-07-14T04:13:25.888Z,101430.65
2018-07-14T04:15:54.258Z,101424.66
2018-07-14T04:18:22.601Z,101423.72
2018-07-14T04:20:50.945Z,101424.34
2018-07-14T04:23:19.289Z,101422.70
2018-07-14T04:25:47.644Z,101423.89
2018-07-14T04:28:15.986Z,101430.28
2018-07-14T04:30:44.328Z,101429.85
2018-07-14T04:33:12.672Z,101436.73
2018-07-14T04:35:41.031Z,101428.11
2018-07-14T04:38:09.472Z,101429.45
2018-07-14T04:40:38.005Z,101430.14
2018-07-14T04:43:06.381Z,101432.33
2018-07-14T04:45:34.692Z,101435.35
2018-07-14T04:48:03.032Z,101437.08
2018-07-14T04:50:31.434Z,101434.87
2018-07-14T04:52:59.810Z,101436.27
2018-07-14T04:55:28.152Z,101440.75
2018-07-14T04:57:56.487Z,101446.82
2018-07-14T05:00:24.968Z,101451.60
2018-07-14T05:02:53.303Z,101452.22
2018-07-14T05:05:21.695Z,101451.17
2018-07-14T05:07:50.029Z,101448.91
2018-07-14T05:10:18.543Z,101440.94
2018-07-14T05:12:46.853Z,101446.34
2018-07-14T05:15:15.247Z,101447.97
2018-07-14T05:17:43.641Z,101449.16
2018-07-14T05:20:11.953Z,101449.05
2018-07-14T05:22:40.271Z,101446.39
2018-07-14T05:25:08.656Z,101451.10
2018-07-14T05:27:36.992Z,101439.84
2018-07-14T05:30:05.656Z,101436.02
2018-07-14T05:32:34.176Z,101443.03
2018-07-14T05:35:02.518Z,101437.05
2018-07-14T05:37:30.861Z,101437.34
2018-07-14T05:39:59.194Z,101438.06
2018-07-14T05:42:27.545Z,101440.75
2018-07-14T05:44:55.877Z,101443.16
2018-07-14T05:47:24.221Z,101442.07
2018-07-14T05:49:52.528Z,101447.70
2018-07-14T05:52:20.871Z,101447.39
2018-07-14T05:54:49.241Z,101444.98
2018-07-14T05:57:17.590Z,101451.84
2018-07-14T05:59:45.886Z,101448.92
2018-07-14T06:02:14.197Z,101446.89
2018-07-14T06:04:42.547Z,101453.69
2018-07-14T06:07:11.250Z,101447.73
2018-07-14T06:09:39.581Z,101453.28
2018-07-14T06:12:08.120Z,101446.13
2018-07-14T06:14:36.475Z,101451.05
2018-07-14T06:17:04.884Z,101446.20
2018-07-14T06:19:33.229Z,101447.94
2018-07-14T06:22:01.626Z,101449.84
2018-07-14T06:24:30.610Z,101458.34
2018-07-14T06:26:58.960Z,101458.27
2018-07-14T06:29:27.301Z,101458.08
2018-07-14T06:31:56.824Z,101449.78
2018-07-14T06:34:25.076Z,101460.23
2018-07-14T06:36:53.429Z,101461.34
2018-07-14T06:39:21.821Z,101469.17
2018-07-14T06:41:50.177Z,101464.08
2018-07-14T06:44:18.575Z,101468.02
2018-07-14T06:46:46.987Z,101474.31
2018-07-14T06:49:15.328Z,101474.31
2018-07-14T06:51:43.736Z,101476.47
2018-07-14T06:54:12.199Z,101472.34
2018-07-14T06:56:40.454Z,101471.41
2018-07-14T06:59:08.907Z,101471.93
2018-07-14T07:01:37.265Z,101468.20
2018-07-14T07:04:05.616Z,101476.75
2018-07-14T07:06:33.984Z,101479.44
2018-07-14T07:09:02.365Z,101476.34
2018-07-14T07:11:30.723Z,101478.82
2018-07-14T07:13:59.430Z,101472.41
2018-07-14T07:16:27.814Z,101476.14
2018-07-14T07:18:56.252Z,101473.78
2018-07-14T07:21:24.653Z,101471.32
2018-07-14T07:23:52.965Z,101469.23
2018-07-14T07:26:22.994Z,101470.58
2018-07-14T07:28:52.181Z,101473.56
2018-07-14T07:31:20.578Z,101473.59
2018-07-14T07:33:49.085Z,101471.80
2018-07-14T07:36:17.361Z,101474.39
2018-07-14T07:38:45.784Z,101469.02
2018-07-14T07:41:14.121Z,101476.84
2018-07-14T07:43:43.377Z,101482.97
2018-07-14T07:46:11.789Z,101493.27
2018-07-14T07:48:40.113Z,101483.38
2018-07-14T07:51:08.772Z,101486.48
2018-07-14T07:53:37.094Z,101486.06
2018-07-14T07:56:05.555Z,101484.20
2018-07-14T07:58:33.881Z,101481.42
2018-07-14T08:01:02.262Z,101476.06
2018-07-14T08:03:30.596Z,101474.42
2018-07-14T08:05:59.231Z,101475.31
2018-07-14T08:08:27.601Z,101482.77
2018-07-14T08:10:56.118Z,101480.39
2018-07-14T08:13:24.463Z,101473.56
2018-07-14T08:15:52.843Z,101469.98
2018-07-14T08:18:21.396Z,101468.95
2018-07-14T08:20:49.815Z,101458.92
2018-07-14T08:23:18.346Z,101465.62
2018-07-14T08:25:46.765Z,101472.13
2018-07-14T08:28:15.145Z,101475.33
2018-07-14T08:30:43.613Z,101476.47
2018-07-14T08:33:12.951Z,101475.19
2018-07-14T08:35:41.317Z,101466.70
2018-07-14T08:38:09.787Z,101471.98
2018-07-14T08:40:38.155Z,101480.47
2018-07-14T08:43:06.525Z,101476.86
2018-07-14T08:45:35.374Z,101470.45
2018-07-14T08:48:03.780Z,101468.16
2018-07-14T08:50:32.273Z,101477.65
2018-07-14T08:53:00.789Z,101467.33
2018-07-14T08:55:29.177Z,101464.95
2018-07-14T08:57:57.537Z,101471.55
2018-07-14T09:00:25.941Z,101474.73
2018-07-14T09:02:54.322Z,101480.91
2018-07-14T09:05:22.688Z,101478.67
2018-07-14T09:07:51.441Z,101470.41
2018-07-14T09:10:19.810Z,101475.74
2018-07-14T09:12:48.351Z,101476.41
2018-07-14T09:15:16.742Z,101476.48
2018-07-14T09:17:45.060Z,101475.97
2018-07-14T09:20:13.470Z,101472.16
2018-07-14T09:22:41.876Z,101476.52
2018-07-14T09:25:10.317Z,101465.27
2018-07-14T09:27:38.977Z,101467.11
2018-07-14T09:30:07.328Z,101467.41
2018-07-14T09:32:35.725Z,101473.30
2018-07-14T09:35:04.065Z,101465.74
2018-07-14T09:37:32.424Z,101460.53
2018-07-14T09:40:00.830Z,101457.16
2018-07-14T09:42:29.176Z,101459.16
2018-07-14T09:44:57.628Z,101448.92
2018-07-14T09:47:26.023Z,101447.06
2018-07-14T09:49:54.368Z,101441.33
2018-07-14T09:52:22.749Z,101446.05
2018-07-14T09:54:51.091Z,101442.31
2018-07-14T09:57:19.528Z,101442.97
2018-07-14T09:59:47.871Z,101440.08
2018-07-14T10:02:16.237Z,101432.55
2018-07-14T10:04:44.612Z,101433.72
2018-07-14T10:07:13.009Z,101431.28
2018-07-14T10:09:41.574Z,101439.06
2018-07-14T10:12:09.967Z,101435.69
2018-07-14T10:14:38.368Z,101426.02
2018-07-14T10:17:06.726Z,101428.38
2018-07-14T10:19:35.093Z,101425.66
2018-07-14T10:22:03.490Z,101425.19
2018-07-14T10:24:31.830Z,101425.97
2018-07-14T10:27:00.209Z,101420.72
2018-07-14T10:29:28.591Z,101417.70
2018-07-14T10:31:56.901Z,101415.30
2018-07-14T10:34:25.660Z,101414.78
2018-07-14T10:36:54.022Z,101419.11
2018-07-14T10:39:22.364Z,101419.11
2018-07-14T10:41:50.715Z,101413.82
2018-07-14T10:44:19.045Z,101414.59
2018-07-14T10:46:47.406Z,101417.75
2018-07-14T10:49:15.897Z,101411.56
2018-07-14T10:51:44.246Z,101413.95
2018-07-14T10:54:12.873Z,101415.02
2018-07-14T10:56:41.253Z,101413.00
2018-07-14T10:59:09.592Z,101422.10
2018-07-14T11:01:38.135Z,101409.81
2018-07-14T11:04:06.491Z,101419.00
2018-07-14T11:06:34.871Z,101411.07
2018-07-14T11:09:03.559Z,101402.48
2018-07-14T11:11:31.881Z,101404.41
2018-07-14T11:14:00.283Z,101400.44
2018-07-14T11:16:28.636Z,101401.28
2018-07-14T11:18:57.150Z,101399.73
2018-07-14T11:21:25.632Z,101397.09
2018-07-14T11:23:54.036Z,101397.19
2018-07-14T11:26:22.409Z,101389.03
2018-07-14T11:28:51.146Z,101382.33
2018-07-14T11:31:19.583Z,101387.11
2018-07-14T11:33:48.007Z,101377.47
2018-07-14T11:36:16.358Z,101378.45
2018-07-14T11:38:44.747Z,101377.84
2018-07-14T11:41:13.081Z,101387.20
2018-07-14T11:43:41.553Z,101386.45
2018-07-14T11:46:09.931Z,101382.41
2018-07-14T11:48:38.268Z,101377.19
2018-07-14T11:51:06.795Z,101376.95
2018-07-14T11:53:35.137Z,101368.14
2018-07-14T11:56:03.492Z,101367.16
2018-07-14T11:58:31.815Z,101369.92
2018-07-14T12:03:13.031Z,101358.44
2018-07-14T12:05:41.378Z,101363.58
2018-07-14T12:08:09.783Z,101357.27
2018-07-14T12:10:38.167Z,101353.23
2018-07-14T12:13:06.667Z,101347.94
2018-07-14T12:15:34.993Z,101344.55
2018-07-14T12:18:03.521Z,101342.72
2018-07-14T12:20:31.864Z,101339.88
2018-07-14T12:23:00.189Z,101339.50
2018-07-14T12:25:28.528Z,101340.94
2018-07-14T12:27:56.906Z,101336.34
2018-07-14T12:30:25.314Z,101335.88
2018-07-14T12:32:53.867Z,101338.00
2018-07-14T12:35:22.229Z,101332.19
2018-07-14T12:37:50.537Z,101331.66
2018-07-14T12:40:18.860Z,101324.87
2018-07-14T12:42:47.216Z,101322.76
2018-07-14T12:45:15.538Z,101326.98
2018-07-14T12:47:43.869Z,101325.41
2018-07-14T12:50:12.179Z,101317.25
2018-07-14T12:52:40.544Z,101312.86
2018-07-14T12:55:08.883Z,101306.61
2018-07-14T12:57:37.223Z,101307.33
2018-07-14T13:00:06.083Z,101307.70
2018-07-14T13:02:34.406Z,101303.00
2018-07-14T13:05:02.769Z,101311.78
2018-07-14T13:07:31.159Z,101309.66
2018-07-14T13:09:59.477Z,101302.53
2018-07-14T13:12:27.807Z,101300.33
2018-07-14T13:14:56.532Z,101293.63
2018-07-14T13:17:24.890Z,101294.97
2018-07-14T13:19:53.211Z,101292.75
2018-07-14T13:22:21.525Z,101292.75
2018-07-14T13:24:49.876Z,101283.96
2018-07-14T13:27:18.193Z,101285.13
2018-07-14T13:29:46.544Z,101288.06
2018-07-14T13:32:14.875Z,101296.12
2018-07-14T13:34:43.169Z,101292.14
2018-07-14T13:37:11.506Z,101284.98
2018-07-14T13:39:39.794Z,101280.59
2018-07-14T13:42:08.130Z,101272.28
2018-07-14T13:44:36.520Z,101281.88
2018-07-14T13:47:05.084Z,101268.48
2018-07-14T13:49:33.391Z,101267.25
2018-07-14T13:52:01.763Z,101264.13
2018-07-14T13:54:30.101Z,101260.19
2018-07-14T13:56:58.566Z,101266.66
2018-07-14T13:59:26.909Z,101266.98
2018-07-14T14:01:55.215Z,101254.88
2018-07-14T14:04:23.541Z,101257.09
2018-07-14T14:06:51.924Z,101257.69
2018-07-14T14:09:20.245Z,101250.23
2018-07-14T14:11:48.602Z,101252.70
2018-07-14T14:14:16.914Z,101250.94
2018-07-14T14:16:45.270Z,101253.64
2018-07-14T14:19:13.624Z,101250.01
2018-07-14T14:21:41.990Z,101248.48
2018-07-14T14:24:10.323Z,101237.64
2018-07-14T14:26:39.729Z,101231.96
2018-07-14T14:29:08.309Z,101247.78
2018-07-14T14:31:36.660Z,101237.52
2018-07-14T14:34:05.020Z,101232.52
2018-07-14T14:36:33.386Z,101235.49
2018-07-14T14:39:01.800Z,101231.66
2018-07-14T14:41:30.091Z,101224.02
2018-07-14T14:43:58.432Z,101226.98
2018-07-14T14:46:26.752Z,101226.70
2018-07-14T14:48:55.121Z,101223.66
2018-07-14T14:51:23.576Z,101223.17
2018-07-14T14:53:51.924Z,101226.85
2018-07-14T14:56:20.287Z,101222.34
2018-07-14T14:58:48.860Z,101216.47
2018-07-14T15:01:17.196Z,101212.17
2018-07-14T15:03:45.553Z,101213.52
2018-07-14T15:06:14.845Z,101211.89
2018-07-14T15:08:43.182Z,101212.77
2018-07-14T15:11:11.531Z,101211.81
2018-07-14T15:13:40.074Z,101214.13
2018-07-14T15:16:08.399Z,101214.75
2018-07-14T15:18:36.722Z,101209.23
2018-07-14T15:21:05.129Z,101217.78
2018-07-14T15:23:33.566Z,101214.05
2018-07-14T15:26:01.884Z,101205.63
2018-07-14T15:28:30.214Z,101208.95
2018-07-14T15:30:58.591Z,101198.70
2018-07-14T15:33:26.977Z,101202.27
2018-07-14T15:35:55.298Z,101198.28
2018-07-14T15:38:23.601Z,101198.08
2018-07-14T15:40:51.965Z,101204.88
2018-07-14T15:43:20.281Z,101193.35
2018-07-14T15:45:48.592Z,101192.20
2018-07-14T15:48:16.983Z,101197.73
2018-07-14T15:50:45.321Z,101193.55
2018-07-14T15:53:13.820Z,101193.09
2018-07-14T15:55:42.136Z,101198.36
2018-07-14T15:58:10.667Z,101193.48
2018-07-14T16:00:38.989Z,101197.84
2018-07-14T16:03:07.452Z,101193.92
2018-07-14T16:05:35.810Z,101189.81
2018-07-14T16:08:04.167Z,101188.22
2018-07-14T16:10:32.506Z,101191.23
2018-07-14T16:13:00.807Z,101190.78
2018-07-14T16:15:29.155Z,101190.70
2018-07-14T16:17:57.507Z,101192.67
2018-07-14T16:20:25.876Z,101187.42
2018-07-14T16:22:54.217Z,101192.03
2018-07-14T16:25:22.589Z,101185.87
2018-07-14T16:27:50.921Z,101185.82
2018-07-14T16:30:19.193Z,101195.27
2018-07-14T16:32:47.551Z,101188.52
2018-07-14T16:35:15.902Z,101193.10
2018-07-14T16:37:44.228Z,101188.41
2018-07-14T16:40:12.672Z,101188.09
2018-07-14T16:42:40.975Z,101189.64
2018-07-14T16:45:09.314Z,101183.63
2018-07-14T16:47:37.635Z,101179.97
2018-07-14T16:50:06.065Z,101178.47
2018-07-14T16:52:34.372Z,101180.30
2018-07-14T16:55:02.733Z,101176.59
2018-07-14T16:57:31.099Z,101177.06
2018-07-14T16:59:59.438Z,101178.63
2018-07-14T17:02:27.760Z,101179.16
2018-07-14T17:04:56.130Z,101179.98
2018-07-14T17:07:24.472Z,101178.20
2018-07-14T17:09:52.890Z,101176.44
2018-07-14T17:12:21.238Z,101179.73
2018-07-14T17:14:49.571Z,101179.67
2018-07-14T17:17:17.883Z,101191.80
2018-07-14T17:19:46.171Z,101184.24
2018-07-14T17:22:14.483Z,101183.36
2018-07-14T17:24:42.825Z,101185.00
2018-07-14T17:27:11.174Z,101172.45
2018-07-14T17:29:39.636Z,101174.77
2018-07-14T17:32:08.204Z,101171.72
2018-07-14T17:34:36.522Z,101176.77
2018-07-14T17:37:04.846Z,101172.31
2018-07-14T17:39:33.165Z,101174.12
2018-07-14T17:42:01.512Z,101168.70
2018-07-14T17:44:29.818Z,101168.38
2018-07-14T17:46:58.149Z,101171.05
2018-07-14T17:49:26.765Z,101168.00
2018-07-14T17:51:55.118Z,101171.97
2018-07-14T17:54:23.368Z,101175.20
2018-07-14T17:56:51.879Z,101165.63
2018-07-14T17:59:20.217Z,101181.73
2018-07-14T18:01:48.901Z,101175.77
2018-07-14T18:04:17.301Z,101176.17
2018-07-14T18:06:45.648Z,101168.33
2018-07-14T18:09:13.975Z,101165.56
2018-07-14T18:11:42.294Z,101171.42
2018-07-14T18:14:10.638Z,101173.16
2018-07-14T18:16:38.977Z,101180.88
2018-07-14T18:19:07.338Z,101183.22
2018-07-14T18:21:35.691Z,101175.59
2018-07-14T18:24:04.035Z,101173.86
2018-07-14T18:26:32.429Z,101171.58
2018-07-14T18:29:00.747Z,101169.88
2018-07-14T18:31:29.111Z,101179.23
2018-07-14T18:33:57.450Z,101180.21
2018-07-14T18:36:25.811Z,101171.17
2018-07-14T18:38:54.225Z,101178.60
2018-07-14T18:41:22.612Z,101177.10
2018-07-14T18:43:51.033Z,101182.94
2018-07-14T18:46:19.439Z,101179.88
2018-07-14T18:48:47.782Z,101179.45
2018-07-14T18:51:16.116Z,101184.17
2018-07-14T18:53:44.714Z,101184.91
2018-07-14T18:56:13.024Z,101189.56
2018-07-14T18:58:41.387Z,101192.66
2018-07-14T19:01:09.725Z,101189.73
2018-07-14T19:03:38.054Z,101193.31
2018-07-14T19:06:06.384Z,101197.62
2018-07-14T19:08:34.751Z,101205.03
2018-07-14T19:11:03.391Z,101199.57
2018-07-14T19:13:31.734Z,101203.47
2018-07-14T19:16:00.448Z,101207.34
2018-07-14T19:18:28.860Z,101206.05
2018-07-14T19:20:57.279Z,101206.41
2018-07-14T19:23:25.597Z,101202.77
2018-07-14T19:25:53.937Z,101214.31
2018-07-14T19:28:22.234Z,101206.84
2018-07-14T19:30:50.572Z,101210.72
2018-07-14T19:33:18.908Z,101215.91
2018-07-14T19:35:47.275Z,101218.19
2018-07-14T19:38:15.611Z,101216.37
2018-07-14T19:40:43.973Z,101220.16
2018-07-14T19:43:12.324Z,101218.05
2018-07-14T19:45:40.652Z,101225.92
2018-07-14T19:48:08.950Z,101222.76
2018-07-14T19:50:37.452Z,101223.13
2018-07-14T19:53:05.781Z,101227.48
2018-07-14T19:55:35.667Z,101228.58
2018-07-14T19:58:02.460Z,101232.12
2018-07-14T20:00:30.808Z,101232.45
2018-07-14T20:02:59.133Z,101236.90
2018-07-14T20:05:27.485Z,101230.75
2018-07-14T20:07:55.833Z,101233.76
2018-07-14T20:10:25.039Z,101235.33
2018-07-14T20:12:53.440Z,101236.80
2018-07-14T20:15:21.764Z,101240.42
2018-07-14T20:17:50.100Z,101239.40
2018-07-14T20:20:18.552Z,101243.45
2018-07-14T20:22:46.852Z,101240.78
2018-07-14T20:25:15.236Z,101243.30
2018-07-14T20:27:43.551Z,101237.72
2018-07-14T20:30:11.899Z,101245.06
2018-07-14T20:32:40.287Z,101247.53
2018-07-14T20:35:08.640Z,101245.50
2018-07-14T20:37:37.003Z,101244.58
2018-07-14T20:40:05.392Z,101252.51
2018-07-14T20:42:33.722Z,101249.84
2018-07-14T20:45:02.084Z,101249.52
2018-07-14T20:47:30.431Z,101247.66
2018-07-14T20:49:58.805Z,101253.87
2018-07-14T20:52:27.155Z,101258.08
2018-07-14T20:54:55.476Z,101256.23
2018-07-14T20:57:23.758Z,101261.69
2018-07-14T20:59:52.112Z,101254.80
2018-07-14T21:02:20.390Z,101261.09
2018-07-14T21:04:48.700Z,101259.22
2018-07-14T21:07:16.994Z,101262.30
2018-07-14T21:09:45.525Z,101257.36
2018-07-14T21:12:13.894Z,101256.83
2018-07-14T21:14:42.218Z,101259.61
2018-07-14T21:17:10.559Z,101262.88
2018-07-14T21:19:38.888Z,101254.43
2018-07-14T21:22:07.331Z,101250.85
2018-07-14T21:24:35.630Z,101258.13
2018-07-14T21:27:04.016Z,101259.05
2018-07-14T21:29:32.359Z,101259.64
2018-07-14T21:32:00.728Z,101261.38
2018-07-14T21:34:29.074Z,101258.98
2018-07-14T21:36:57.373Z,101262.58
2018-07-14T21:39:25.724Z,101260.70
2018-07-14T21:41:54.059Z,101263.98
2018-07-14T21:44:22.421Z,101266.94
2018-07-14T21:46:50.753Z,101266.52
2018-07-14T21:49:19.100Z,101263.93
2018-07-14T21:51:47.611Z,101267.22
2018-07-14T21:54:15.987Z,101266.06
2018-07-14T21:56:44.269Z,101272.95
2018-07-14T21:59:12.695Z,101266.33
2018-07-14T22:01:46.226Z,101272.80
2018-07-14T22:04:14.576Z,101273.89
2018-07-14T22:06:42.882Z,101278.51
2018-07-14T22:09:11.219Z,101268.50
2018-07-14T22:11:39.551Z,101274.85
2018-07-14T22:14:07.856Z,101278.55
2018-07-14T22:16:36.185Z,101276.06
2018-07-14T22:19:04.491Z,101274.11
2018-07-14T22:21:33.016Z,101271.63
2018-07-14T22:24:01.496Z,101275.84
2018-07-14T22:26:29.864Z,101274.86
2018-07-14T22:28:58.349Z,101275.07
2018-07-14T22:31:26.864Z,101276.16
2018-07-14T22:33:55.278Z,101277.31
2018-07-14T22:36:23.610Z,101283.26
2018-07-14T22:38:51.925Z,101285.48
2018-07-14T22:41:20.229Z,101286.39
2018-07-14T22:43:48.588Z,101284.62
2018-07-14T22:46:17.019Z,101277.42
2018-07-14T22:48:45.332Z,101276.30
2018-07-14T22:51:13.708Z,101276.25
2018-07-14T22:53:42.062Z,101278.14
2018-07-14T22:56:10.384Z,101280.89
2018-07-14T22:58:38.769Z,101290.23
2018-07-14T23:01:07.415Z,101285.20
2018-07-14T23:03:35.834Z,101279.11
2018-07-14T23:06:04.148Z,101289.53
2018-07-14T23:08:32.493Z,101293.81
2018-07-14T23:11:01.708Z,101296.55
2018-07-14T23:13:30.068Z,101295.47
2018-07-14T23:15:58.406Z,101289.17
2018-07-14T23:18:26.769Z,101288.01
2018-07-14T23:20:55.196Z,101287.39
2018-07-14T23:23:23.523Z,101284.14
2018-07-14T23:25:51.893Z,101279.05
2018-07-14T23:28:20.212Z,101287.43
2018-07-14T23:30:49.217Z,101281.62
2018-07-14T23:33:17.537Z,101280.80
2018-07-14T23:35:45.873Z,101278.02
2018-07-14T23:38:14.195Z,101274.88
2018-07-14T23:40:42.526Z,101274.77
2018-07-14T23:43:10.854Z,101277.09
2018-07-14T23:45:39.208Z,101277.81
2018-07-14T23:48:07.565Z,101280.85
2018-07-14T23:50:35.899Z,101269.42
2018-07-14T23:53:04.237Z,101277.45
2018-07-14T23:55:32.567Z,101273.59
2018-07-14T23:58:00.906Z,101270.84
